sensor_id;sensor_type;location;lat;lon;timestamp;pressure;altitude;pressure_sealevel;temperature;humidity
7768;BME280;3928;42.626;23.382;2022-11-12T00:01:27;95480.50;;;11.49;92.33
7768;BME280;3928;42.626;23.382;2022-11-12T00:03:54;95483.03;;;11.61;91.67
7768;BME280;3928;42.626;23.382;2022-11-12T00:06:21;95485.56;;;11.77;91.33
7768;BME280;3928;42.626;23.382;2022-11-12T00:08:48;95488.13;;;11.93;90.04
7768;BME280;3928;42.626;23.382;2022-11-12T00:11:15;95454.72;;;11.86;89.46
7768;BME280;3928;42.626;23.382;2022-11-12T00:13:43;95454.69;;;11.90;88.98
7768;BME280;3928;42.626;23.382;2022-11-12T00:16:10;95463.25;;;12.02;88.95
7768;BME280;3928;42.626;23.382;2022-11-12T00:18:37;95470.91;;;12.14;88.41
7768;BME280;3928;42.626;23.382;2022-11-12T00:21:03;95470.03;;;12.18;87.91
7768;BME280;3928;42.626;23.382;2022-11-12T00:23:30;95476.84;;;12.26;87.97
7768;BME280;3928;42.626;23.382;2022-11-12T00:25:58;95448.63;;;12.11;87.73
7768;BME280;3928;42.626;23.382;2022-11-12T00:28:25;95478.53;;;12.30;87.21
7768;BME280;3928;42.626;23.382;2022-11-12T00:30:53;95464.00;;;12.23;86.75
7768;BME280;3928;42.626;23.382;2022-11-12T00:33:20;95490.53;;;12.44;86.83
7768;BME280;3928;42.626;23.382;2022-11-12T00:35:47;95482.78;;;12.44;86.87
7768;BME280;3928;42.626;23.382;2022-11-12T00:38:14;95485.34;;;12.47;86.45
7768;BME280;3928;42.626;23.382;2022-11-12T00:40:40;95478.47;;;12.43;86.11
7768;BME280;3928;42.626;23.382;2022-11-12T00:43:07;95476.78;;;12.45;85.72
7768;BME280;3928;42.626;23.382;2022-11-12T00:45:34;95487.06;;;12.46;85.96
7768;BME280;3928;42.626;23.382;2022-11-12T00:48:02;95478.47;;;12.43;86.29
7768;BME280;3928;42.626;23.382;2022-11-12T00:50:29;95492.22;;;12.45;86.15
7768;BME280;3928;42.626;23.382;2022-11-12T00:52:56;95466.53;;;12.33;86.44
7768;BME280;3928;42.626;23.382;2022-11-12T00:55:23;95486.19;;;12.47;86.65
7768;BME280;3928;42.626;23.382;2022-11-12T00:57:49;95478.44;;;12.52;86.24
7768;BME280;3928;42.626;23.382;2022-11-12T01:00:18;95469.91;;;12.47;86.22
7768;BME280;3928;42.626;23.382;2022-11-12T01:02:45;95473.28;;;12.52;86.39
7768;BME280;3928;42.626;23.382;2022-11-12T01:05:13;95462.97;;;12.53;86.58
7768;BME280;3928;42.626;23.382;2022-11-12T01:07:41;95457.03;;;12.47;86.34
7768;BME280;3928;42.626;23.382;2022-11-12T01:10:08;95445.94;;;12.29;87.52
7768;BME280;3928;42.626;23.382;2022-11-12T01:12:36;95427.25;;;11.91;88.26
7768;BME280;3928;42.626;23.382;2022-11-12T01:15:04;95459.00;;;11.87;89.42
7768;BME280;3928;42.626;23.382;2022-11-12T01:17:31;95449.59;;;11.72;90.19
7768;BME280;3928;42.626;23.382;2022-11-12T01:19:58;95440.19;;;11.56;90.74
7768;BME280;3928;42.626;23.382;2022-11-12T01:22:26;95459.00;;;11.68;90.78
7768;BME280;3928;42.626;23.382;2022-11-12T01:24:53;95461.59;;;11.73;90.95
7768;BME280;3928;42.626;23.382;2022-11-12T01:27:20;95462.44;;;11.69;90.57
7768;BME280;3928;42.626;23.382;2022-11-12T01:29:46;95451.28;;;11.75;90.41
7768;BME280;3928;42.626;23.382;2022-11-12T01:32:13;95458.16;;;11.85;90.18
7768;BME280;3928;42.626;23.382;2022-11-12T01:34:40;95460.66;;;11.95;89.90
7768;BME280;3928;42.626;23.382;2022-11-12T01:37:07;95457.25;;;11.99;89.38
7768;BME280;3928;42.626;23.382;2022-11-12T01:39:36;95448.66;;;12.00;89.13
7768;BME280;3928;42.626;23.382;2022-11-12T01:42:03;95446.13;;;11.90;89.33
7768;BME280;3928;42.626;23.382;2022-11-12T01:44:30;95432.41;;;11.77;89.50
7768;BME280;3928;42.626;23.382;2022-11-12T01:47:03;95445.28;;;11.76;90.11
7768;BME280;3928;42.626;23.382;2022-11-12T01:49:36;95442.72;;;11.68;90.36
7768;BME280;3928;42.626;23.382;2022-11-12T01:52:10;95441.03;;;11.56;90.96
7768;BME280;3928;42.626;23.382;2022-11-12T01:54:40;95446.22;;;11.38;91.91
7768;BME280;3928;42.626;23.382;2022-11-12T01:57:09;95441.97;;;11.14;93.45
7768;BME280;3928;42.626;23.382;2022-11-12T01:59:40;95441.13;;;11.07;94.23
7768;BME280;3928;42.626;23.382;2022-11-12T02:02:10;95430.84;;;11.18;94.25
7768;BME280;3928;42.626;23.382;2022-11-12T02:04:37;95435.09;;;11.30;93.32
7768;BME280;3928;42.626;23.382;2022-11-12T02:07:05;95438.50;;;11.33;93.14
7768;BME280;3928;42.626;23.382;2022-11-12T02:09:33;95440.22;;;11.33;93.21
7768;BME280;3928;42.626;23.382;2022-11-12T02:12:02;95445.38;;;11.33;92.80
7768;BME280;3928;42.626;23.382;2022-11-12T02:14:29;95435.94;;;11.24;93.33
7768;BME280;3928;42.626;23.382;2022-11-12T02:16:56;95439.41;;;11.05;94.15
7768;BME280;3928;42.626;23.382;2022-11-12T02:19:24;95438.56;;;11.03;94.81
7768;BME280;3928;42.626;23.382;2022-11-12T02:21:52;95447.09;;;11.08;94.38
7768;BME280;3928;42.626;23.382;2022-11-12T02:24:32;95455.66;;;11.10;94.35
7768;BME280;3928;42.626;23.382;2022-11-12T02:27:02;95447.94;;;11.21;93.94
7768;BME280;3928;42.626;23.382;2022-11-12T02:29:31;95439.41;;;11.26;93.27
7768;BME280;3928;42.626;23.382;2022-11-12T02:31:59;95453.06;;;11.36;92.01
7768;BME280;3928;42.626;23.382;2022-11-12T02:34:26;95446.22;;;11.44;91.59
7768;BME280;3928;42.626;23.382;2022-11-12T02:36:54;95449.63;;;11.48;91.21
7768;BME280;3928;42.626;23.382;2022-11-12T02:39:21;95445.34;;;11.51;90.63
7768;BME280;3928;42.626;23.382;2022-11-12T02:41:48;95449.59;;;11.58;90.02
7768;BME280;3928;42.626;23.382;2022-11-12T02:44:14;95443.63;;;11.61;89.83
7768;BME280;3928;42.626;23.382;2022-11-12T02:46:41;95449.59;;;11.66;89.29
7768;BME280;3928;42.626;23.382;2022-11-12T02:49:08;95453.03;;;11.73;88.71
7768;BME280;3928;42.626;23.382;2022-11-12T02:51:35;95443.56;;;11.75;88.45
7768;BME280;3928;42.626;23.382;2022-11-12T02:54:05;95445.28;;;11.80;87.89
7768;BME280;3928;42.626;23.382;2022-11-12T02:56:31;95437.56;;;11.82;87.94
7768;BME280;3928;42.626;23.382;2022-11-12T02:58:58;95436.72;;;11.75;87.54
7768;BME280;3928;42.626;23.382;2022-11-12T03:01:25;95440.16;;;11.74;87.52
7768;BME280;3928;42.626;23.382;2022-11-12T03:03:52;95423.03;;;11.58;87.28
7768;BME280;3928;42.626;23.382;2022-11-12T03:06:19;95439.38;;;11.40;88.51
7768;BME280;3928;42.626;23.382;2022-11-12T03:08:46;95422.28;;;11.05;89.19
7768;BME280;3928;42.626;23.382;2022-11-12T03:11:15;95441.97;;;11.14;90.05
7768;BME280;3928;42.626;23.382;2022-11-12T03:13:43;95446.25;;;10.95;91.06
7768;BME280;3928;42.626;23.382;2022-11-12T03:16:10;95438.53;;;10.88;91.55
7768;BME280;3928;42.626;23.382;2022-11-12T03:18:37;95437.69;;;10.90;91.28
7768;BME280;3928;42.626;23.382;2022-11-12T03:21:04;95439.41;;;10.96;91.26
7768;BME280;3928;42.626;23.382;2022-11-12T03:23:31;95429.13;;;10.94;89.27
7768;BME280;3928;42.626;23.382;2022-11-12T03:26:00;95433.41;;;10.92;87.97
7768;BME280;3928;42.626;23.382;2022-11-12T03:28:28;95438.53;;;10.97;87.38
7768;BME280;3928;42.626;23.382;2022-11-12T03:30:56;95397.44;;;10.77;88.02
7768;BME280;3928;42.626;23.382;2022-11-12T03:33:24;95435.97;;;11.04;87.59
7768;BME280;3928;42.626;23.382;2022-11-12T03:35:51;95434.25;;;11.12;88.11
7768;BME280;3928;42.626;23.382;2022-11-12T03:38:18;95444.50;;;11.23;87.23
7768;BME280;3928;42.626;23.382;2022-11-12T03:40:45;95437.69;;;11.28;86.88
7768;BME280;3928;42.626;23.382;2022-11-12T03:43:11;95442.81;;;11.30;87.32
7768;BME280;3928;42.626;23.382;2022-11-12T03:45:40;95442.78;;;11.33;87.31
7768;BME280;3928;42.626;23.382;2022-11-12T03:48:06;95438.53;;;11.32;87.09
7768;BME280;3928;42.626;23.382;2022-11-12T03:50:33;95433.41;;;11.26;86.68
7768;BME280;3928;42.626;23.382;2022-11-12T03:53:00;95441.13;;;11.26;87.25
7768;BME280;3928;42.626;23.382;2022-11-12T03:55:28;95448.81;;;11.18;87.38
7768;BME280;3928;42.626;23.382;2022-11-12T03:57:56;95425.69;;;10.88;86.92
7768;BME280;3928;42.626;23.382;2022-11-12T04:00:24;95445.41;;;10.79;87.51
7768;BME280;3928;42.626;23.382;2022-11-12T04:02:53;95443.69;;;10.69;87.76
7768;BME280;3928;42.626;23.382;2022-11-12T04:05:20;95447.94;;;10.70;87.10
7768;BME280;3928;42.626;23.382;2022-11-12T04:08:07;95448.81;;;10.69;87.93
7768;BME280;3928;42.626;23.382;2022-11-12T04:10:53;95434.25;;;10.67;87.08
7768;BME280;3928;42.626;23.382;2022-11-12T04:13:20;95438.53;;;10.69;87.22
7768;BME280;3928;42.626;23.382;2022-11-12T04:15:56;95438.53;;;10.74;87.18
7768;BME280;3928;42.626;23.382;2022-11-12T04:18:42;95442.84;;;10.79;86.76
7768;BME280;3928;42.626;23.382;2022-11-12T04:21:29;95433.41;;;10.84;86.94
7768;BME280;3928;42.626;23.382;2022-11-12T04:24:14;95418.00;;;10.83;86.15
7768;BME280;3928;42.626;23.382;2022-11-12T04:26:55;95434.25;;;10.82;86.05
7768;BME280;3928;42.626;23.382;2022-11-12T04:29:22;95421.44;;;10.67;86.34
7768;BME280;3928;42.626;23.382;2022-11-12T04:32:06;95420.53;;;10.48;88.10
7768;BME280;3928;42.626;23.382;2022-11-12T04:34:34;95417.09;;;10.50;88.67
7768;BME280;3928;42.626;23.382;2022-11-12T04:37:02;95411.13;;;10.50;89.53
7768;BME280;3928;42.626;23.382;2022-11-12T04:39:29;95340.97;;;10.34;98.90
7768;BME280;3928;42.626;23.382;2022-11-12T04:41:55;95411.16;;;11.14;98.48
7768;BME280;3928;42.626;23.382;2022-11-12T04:44:40;95421.31;;;11.60;93.98
7768;BME280;3928;42.626;23.382;2022-11-12T04:47:21;95430.69;;;11.96;89.97
7768;BME280;3928;42.626;23.382;2022-11-12T04:49:49;95433.13;;;12.25;87.27
7768;BME280;3928;42.626;23.382;2022-11-12T04:52:16;95423.50;;;12.53;85.98
7768;BME280;3928;42.626;23.382;2022-11-12T04:54:42;95430.22;;;12.75;82.36
7768;BME280;3928;42.626;23.382;2022-11-12T04:57:09;95440.41;;;12.94;79.70
7768;BME280;3928;42.626;23.382;2022-11-12T04:59:36;95437.00;;;12.92;77.95
7768;BME280;3928;42.626;23.382;2022-11-12T05:02:03;95432.78;;;12.80;77.93
7768;BME280;3928;42.626;23.382;2022-11-12T05:04:30;95445.72;;;12.69;78.11
7768;BME280;3928;42.626;23.382;2022-11-12T05:06:58;95346.66;;;11.92;77.44
7768;BME280;3928;42.626;23.382;2022-11-12T05:09:27;95447.63;;;12.40;77.66
7768;BME280;3928;42.626;23.382;2022-11-12T05:11:54;95456.31;;;12.20;78.20
7768;BME280;3928;42.626;23.382;2022-11-12T05:14:22;95446.97;;;11.90;79.70
7768;BME280;3928;42.626;23.382;2022-11-12T05:16:48;95453.84;;;11.76;81.29
7768;BME280;3928;42.626;23.382;2022-11-12T05:19:15;95423.06;;;11.46;82.42
7768;BME280;3928;42.626;23.382;2022-11-12T05:21:42;95465.03;;;11.48;82.88
7768;BME280;3928;42.626;23.382;2022-11-12T05:24:28;95465.06;;;11.32;82.62
7768;BME280;3928;42.626;23.382;2022-11-12T05:26:55;95460.78;;;10.99;82.45
7768;BME280;3928;42.626;23.382;2022-11-12T05:29:22;95472.75;;;10.59;83.87
7768;BME280;3928;42.626;23.382;2022-11-12T05:31:49;95462.44;;;10.38;84.93
7768;BME280;3928;42.626;23.382;2022-11-12T05:34:16;95464.97;;;10.27;87.15
7768;BME280;3928;42.626;23.382;2022-11-12T05:36:42;95471.81;;;10.30;86.21
7768;BME280;3928;42.626;23.382;2022-11-12T05:39:09;95469.19;;;10.19;86.40
7768;BME280;3928;42.626;23.382;2022-11-12T05:41:37;95469.16;;;10.16;87.26
7768;BME280;3928;42.626;23.382;2022-11-12T05:44:05;95468.31;;;10.08;86.54
7768;BME280;3928;42.626;23.382;2022-11-12T05:46:31;95475.13;;;10.12;86.68
7768;BME280;3928;42.626;23.382;2022-11-12T05:48:59;95466.63;;;10.19;86.82
7768;BME280;3928;42.626;23.382;2022-11-12T05:51:26;95476.94;;;10.28;84.63
7768;BME280;3928;42.626;23.382;2022-11-12T05:53:53;95467.53;;;10.29;85.79
7768;BME280;3928;42.626;23.382;2022-11-12T05:56:19;95483.00;;;10.44;84.44
7768;BME280;3928;42.626;23.382;2022-11-12T05:58:49;95472.72;;;10.50;83.49
7768;BME280;3928;42.626;23.382;2022-11-12T06:01:16;95483.88;;;10.57;83.15
7768;BME280;3928;42.626;23.382;2022-11-12T06:03:43;95485.59;;;10.58;82.28
7768;BME280;3928;42.626;23.382;2022-11-12T06:06:10;95473.56;;;10.50;82.26
7768;BME280;3928;42.626;23.382;2022-11-12T06:08:36;95487.28;;;10.62;79.70
7768;BME280;3928;42.626;23.382;2022-11-12T06:11:03;95491.59;;;10.73;79.41
7768;BME280;3928;42.626;23.382;2022-11-12T06:13:30;95493.31;;;10.82;79.00
7768;BME280;3928;42.626;23.382;2022-11-12T06:15:59;95502.75;;;10.86;78.68
7768;BME280;3928;42.626;23.382;2022-11-12T06:18:25;95495.06;;;11.01;78.50
7768;BME280;3928;42.626;23.382;2022-11-12T06:20:52;95470.22;;;10.97;76.68
7768;BME280;3928;42.626;23.382;2022-11-12T06:23:37;95479.66;;;11.17;76.61
7768;BME280;3928;42.626;23.382;2022-11-12T06:26:05;95485.63;;;11.31;75.99
7768;BME280;3928;42.626;23.382;2022-11-12T06:28:31;95474.50;;;11.41;76.07
7768;BME280;3928;42.626;23.382;2022-11-12T06:30:59;95488.19;;;11.55;74.41
7768;BME280;3928;42.626;23.382;2022-11-12T06:33:26;95491.59;;;11.66;73.29
7768;BME280;3928;42.626;23.382;2022-11-12T06:35:56;95458.22;;;11.51;70.61
7768;BME280;3928;42.626;23.382;2022-11-12T06:38:27;95483.00;;;11.75;70.40
7768;BME280;3928;42.626;23.382;2022-11-12T06:40:54;95493.31;;;11.84;70.20
7768;BME280;3928;42.626;23.382;2022-11-12T06:43:21;95500.13;;;11.93;69.41
7768;BME280;3928;42.626;23.382;2022-11-12T06:45:48;95501.84;;;11.91;67.65
7768;BME280;3928;42.626;23.382;2022-11-12T06:48:17;95495.88;;;11.72;68.90
7768;BME280;3928;42.626;23.382;2022-11-12T06:50:43;95513.00;;;11.84;69.71
7768;BME280;3928;42.626;23.382;2022-11-12T06:53:11;95515.59;;;11.88;71.41
7768;BME280;3928;42.626;23.382;2022-11-12T06:55:37;95480.44;;;11.86;74.21
7768;BME280;3928;42.626;23.382;2022-11-12T06:58:04;95506.00;;;12.33;70.29
7768;BME280;3928;42.626;23.382;2022-11-12T07:00:31;95424.66;;;11.95;67.18
7768;BME280;3928;42.626;23.382;2022-11-12T07:02:58;95485.38;;;12.38;66.33
7768;BME280;3928;42.626;23.382;2022-11-12T07:05:44;95512.78;;;12.55;64.49
7768;BME280;3928;42.626;23.382;2022-11-12T07:08:10;95502.53;;;12.45;65.75
7768;BME280;3928;42.626;23.382;2022-11-12T07:10:37;95466.56;;;12.26;66.42
7768;BME280;3928;42.626;23.382;2022-11-12T07:13:04;95502.53;;;12.42;65.56
7768;BME280;3928;42.626;23.382;2022-11-12T07:15:31;95505.97;;;12.45;65.78
7768;BME280;3928;42.626;23.382;2022-11-12T07:17:58;95505.94;;;12.47;66.00
7768;BME280;3928;42.626;23.382;2022-11-12T07:20:26;95529.97;;;12.49;65.62
7768;BME280;3928;42.626;23.382;2022-11-12T07:22:54;95505.94;;;12.47;64.99
7768;BME280;3928;42.626;23.382;2022-11-12T07:25:24;95506.81;;;12.44;65.71
7768;BME280;3928;42.626;23.382;2022-11-12T07:27:52;95503.38;;;12.45;65.48
7768;BME280;3928;42.626;23.382;2022-11-12T07:30:19;95509.34;;;12.52;65.41
7768;BME280;3928;42.626;23.382;2022-11-12T07:32:46;95513.63;;;12.51;64.92
7768;BME280;3928;42.626;23.382;2022-11-12T07:35:13;95487.94;;;12.45;65.46
7768;BME280;3928;42.626;23.382;2022-11-12T07:37:39;95509.34;;;12.53;64.90
7768;BME280;3928;42.626;23.382;2022-11-12T07:40:09;95487.13;;;12.29;64.45
7768;BME280;3928;42.626;23.382;2022-11-12T07:42:35;95492.28;;;12.29;65.70
7768;BME280;3928;42.626;23.382;2022-11-12T07:45:03;95516.25;;;12.41;65.34
7768;BME280;3928;42.626;23.382;2022-11-12T07:47:30;95508.53;;;12.42;64.92
7768;BME280;3928;42.626;23.382;2022-11-12T07:49:57;95515.41;;;12.37;62.97
7768;BME280;3928;42.626;23.382;2022-11-12T07:52:24;95497.44;;;12.29;64.26
7768;BME280;3928;42.626;23.382;2022-11-12T07:54:51;95494.84;;;12.31;64.24
7768;BME280;3928;42.626;23.382;2022-11-12T07:57:19;95500.88;;;12.32;63.48
7768;BME280;3928;42.626;23.382;2022-11-12T07:59:46;95497.44;;;12.26;64.45
7768;BME280;3928;42.626;23.382;2022-11-12T08:02:13;95502.63;;;12.23;65.17
7768;BME280;3928;42.626;23.382;2022-11-12T08:04:40;95514.63;;;12.23;63.99
7768;BME280;3928;42.626;23.382;2022-11-12T08:07:08;95511.16;;;12.27;64.24
7768;BME280;3928;42.626;23.382;2022-11-12T08:09:35;95508.63;;;12.15;64.85
7768;BME280;3928;42.626;23.382;2022-11-12T08:12:02;95512.94;;;12.20;64.61
7768;BME280;3928;42.626;23.382;2022-11-12T08:14:30;95518.91;;;12.25;64.98
7768;BME280;3928;42.626;23.382;2022-11-12T08:16:56;95501.00;;;11.96;65.09
7768;BME280;3928;42.626;23.382;2022-11-12T08:19:23;95520.72;;;11.93;65.63
7768;BME280;3928;42.626;23.382;2022-11-12T08:21:50;95523.31;;;11.87;66.17
7768;BME280;3928;42.626;23.382;2022-11-12T08:24:17;95526.75;;;11.86;66.31
7768;BME280;3928;42.626;23.382;2022-11-12T08:26:44;95509.56;;;11.69;66.61
7768;BME280;3928;42.626;23.382;2022-11-12T08:29:10;95519.03;;;11.74;67.53
7768;BME280;3928;42.626;23.382;2022-11-12T08:31:39;95528.44;;;11.78;67.11
7768;BME280;3928;42.626;23.382;2022-11-12T08:34:06;95519.88;;;11.76;66.03
7768;BME280;3928;42.626;23.382;2022-11-12T08:36:37;95514.75;;;11.63;66.54
7768;BME280;3928;42.626;23.382;2022-11-12T08:39:06;95513.88;;;11.77;68.49
7768;BME280;3928;42.626;23.382;2022-11-12T08:41:35;95530.16;;;11.91;66.98
7768;BME280;3928;42.626;23.382;2022-11-12T08:44:02;95531.84;;;11.93;66.54
7768;BME280;3928;42.626;23.382;2022-11-12T08:46:31;95525.84;;;11.99;66.50
7768;BME280;3928;42.626;23.382;2022-11-12T08:48:59;95505.31;;;11.87;66.36
7768;BME280;3928;42.626;23.382;2022-11-12T08:51:26;95535.25;;;12.06;65.93
7768;BME280;3928;42.626;23.382;2022-11-12T08:53:54;95520.69;;;12.08;66.46
7768;BME280;3928;42.626;23.382;2022-11-12T08:56:21;95537.78;;;12.18;65.87
7768;BME280;3928;42.626;23.382;2022-11-12T08:58:48;95534.38;;;12.21;65.72
7768;BME280;3928;42.626;23.382;2022-11-12T09:01:15;95536.09;;;12.22;65.29
7768;BME280;3928;42.626;23.382;2022-11-12T09:03:43;95476.13;;;11.83;65.86
7768;BME280;3928;42.626;23.382;2022-11-12T09:06:11;95524.13;;;12.09;66.47
7768;BME280;3928;42.626;23.382;2022-11-12T09:08:38;95519.88;;;11.97;65.78
7768;BME280;3928;42.626;23.382;2022-11-12T09:11:08;95520.75;;;11.85;65.74
7768;BME280;3928;42.626;23.382;2022-11-12T09:13:35;95487.31;;;11.67;65.65
7768;BME280;3928;42.626;23.382;2022-11-12T09:16:04;95519.00;;;11.67;66.82
7768;BME280;3928;42.626;23.382;2022-11-12T09:18:32;95513.00;;;11.75;66.34
7768;BME280;3928;42.626;23.382;2022-11-12T09:21:01;95501.00;;;11.67;66.35
7768;BME280;3928;42.626;23.382;2022-11-12T09:23:29;95489.88;;;11.56;66.45
7768;BME280;3928;42.626;23.382;2022-11-12T09:25:56;95521.59;;;11.75;66.16
7768;BME280;3928;42.626;23.382;2022-11-12T09:28:23;95501.88;;;11.68;66.55
7768;BME280;3928;42.626;23.382;2022-11-12T09:30:52;95489.88;;;11.59;66.96
7768;BME280;3928;42.626;23.382;2022-11-12T09:33:21;95522.44;;;11.77;66.74
7768;BME280;3928;42.626;23.382;2022-11-12T09:35:51;95521.59;;;11.60;67.48
7768;BME280;3928;42.626;23.382;2022-11-12T09:38:18;95494.19;;;11.45;68.00
7768;BME280;3928;42.626;23.382;2022-11-12T09:41:00;95508.75;;;11.51;68.68
7768;BME280;3928;42.626;23.382;2022-11-12T09:43:31;95515.59;;;11.58;68.19
7768;BME280;3928;42.626;23.382;2022-11-12T09:46:02;95520.75;;;11.55;68.32
7768;BME280;3928;42.626;23.382;2022-11-12T09:48:35;95549.03;;;11.32;68.26
7768;BME280;3928;42.626;23.382;2022-11-12T09:51:09;95519.03;;;11.23;68.84
7768;BME280;3928;42.626;23.382;2022-11-12T09:53:44;95525.03;;;11.22;68.75
7768;BME280;3928;42.626;23.382;2022-11-12T09:56:15;95517.34;;;11.31;68.11
7768;BME280;3928;42.626;23.382;2022-11-12T09:58:44;95512.19;;;11.40;68.00
7768;BME280;3928;42.626;23.382;2022-11-12T10:01:13;95509.63;;;11.60;67.27
7768;BME280;3928;42.626;23.382;2022-11-12T10:03:49;95518.13;;;11.71;66.00
7768;BME280;3928;42.626;23.382;2022-11-12T10:06:21;95519.03;;;11.84;66.01
7768;BME280;3928;42.626;23.382;2022-11-12T10:08:52;95531.84;;;11.99;66.00
7768;BME280;3928;42.626;23.382;2022-11-12T10:14:43;95518.94;;;12.16;65.59
7768;BME280;3928;42.626;23.382;2022-11-12T10:17:24;95524.03;;;12.30;65.53
7768;BME280;3928;42.626;23.382;2022-11-12T10:20:00;95518.00;;;12.39;64.87
7768;BME280;3928;42.626;23.382;2022-11-12T10:22:39;95510.31;;;12.33;64.57
7768;BME280;3928;42.626;23.382;2022-11-12T10:25:14;95516.25;;;12.41;65.05
7768;BME280;3928;42.626;23.382;2022-11-12T10:27:43;95511.94;;;12.47;64.81
7768;BME280;3928;42.626;23.382;2022-11-12T10:30:14;95514.44;;;12.64;66.13
7768;BME280;3928;42.626;23.382;2022-11-12T10:32:42;95525.63;;;12.58;67.53
7768;BME280;3928;42.626;23.382;2022-11-12T10:35:10;95521.34;;;12.56;65.14
7768;BME280;3928;42.626;23.382;2022-11-12T10:37:41;95510.28;;;12.37;66.04
7768;BME280;3928;42.626;23.382;2022-11-12T10:40:33;95520.47;;;12.54;65.89
7768;BME280;3928;42.626;23.382;2022-11-12T10:43:03;95510.25;;;12.46;66.62
7768;BME280;3928;42.626;23.382;2022-11-12T10:45:30;95508.56;;;12.36;67.39
7768;BME280;3928;42.626;23.382;2022-11-12T10:47:58;95518.09;;;12.11;69.54
7768;BME280;3928;42.626;23.382;2022-11-12T10:50:28;95517.28;;;11.94;70.71
7768;BME280;3928;42.626;23.382;2022-11-12T10:53:00;95513.88;;;11.87;71.26
7768;BME280;3928;42.626;23.382;2022-11-12T10:55:29;95513.84;;;12.01;71.12
7768;BME280;3928;42.626;23.382;2022-11-12T10:58:04;95517.25;;;12.08;72.14
7768;BME280;3928;42.626;23.382;2022-11-12T11:00:31;95516.38;;;12.10;72.15
7768;BME280;3928;42.626;23.382;2022-11-12T11:03:01;95521.50;;;12.16;72.72
7768;BME280;3928;42.626;23.382;2022-11-12T11:05:31;95519.78;;;12.23;72.20
7768;BME280;3928;42.626;23.382;2022-11-12T11:07:59;95512.88;;;12.33;70.81
7768;BME280;3928;42.626;23.382;2022-11-12T11:10:28;95500.84;;;12.30;73.73
7768;BME280;3928;42.626;23.382;2022-11-12T11:13:17;95508.53;;;12.39;68.69
7768;BME280;3928;42.626;23.382;2022-11-12T11:15:57;95493.97;;;12.37;70.88
7768;BME280;3928;42.626;23.382;2022-11-12T11:18:25;95494.78;;;12.49;72.28
7768;BME280;3928;42.626;23.382;2022-11-12T11:21:00;95485.25;;;12.62;69.03
7768;BME280;3928;42.626;23.382;2022-11-12T11:23:33;95489.56;;;12.62;67.50
7768;BME280;3928;42.626;23.382;2022-11-12T11:26:14;95515.31;;;12.62;68.92
7768;BME280;3928;42.626;23.382;2022-11-12T11:28:47;95503.28;;;12.64;68.35
7768;BME280;3928;42.626;23.382;2022-11-12T11:31:25;95511.78;;;12.79;68.47
7768;BME280;3928;42.626;23.382;2022-11-12T11:33:58;95496.38;;;12.66;66.21
7768;BME280;3928;42.626;23.382;2022-11-12T11:36:38;95512.69;;;12.66;66.93
7768;BME280;3928;42.626;23.382;2022-11-12T11:39:16;95514.53;;;12.46;66.99
7768;BME280;3928;42.626;23.382;2022-11-12T11:41:54;95502.56;;;12.36;67.45
7768;BME280;3928;42.626;23.382;2022-11-12T11:44:34;95513.66;;;12.50;68.66
7768;BME280;3928;42.626;23.382;2022-11-12T11:47:16;95507.59;;;12.62;69.07
7768;BME280;3928;42.626;23.382;2022-11-12T11:50:19;95510.97;;;12.71;67.58
7768;BME280;3928;42.626;23.382;2022-11-12T11:52:53;95509.22;;;12.73;66.27
7768;BME280;3928;42.626;23.382;2022-11-12T11:55:30;95511.13;;;12.44;67.06
7768;BME280;3928;42.626;23.382;2022-11-12T11:58:12;95500.94;;;12.07;67.96
7768;BME280;3928;42.626;23.382;2022-11-12T12:00:49;95499.25;;;11.94;68.59
7768;BME280;3928;42.626;23.382;2022-11-12T12:03:23;95489.00;;;11.97;67.96
7768;BME280;3928;42.626;23.382;2022-11-12T12:06:14;95504.44;;;11.97;68.78
7768;BME280;3928;42.626;23.382;2022-11-12T12:08:53;95497.53;;;12.02;68.48
7768;BME280;3928;42.626;23.382;2022-11-12T12:11:30;95465.00;;;11.90;68.05
7768;BME280;3928;42.626;23.382;2022-11-12T12:14:10;95480.34;;;12.13;67.52
7768;BME280;3928;42.626;23.382;2022-11-12T12:16:51;95398.19;;;11.61;66.64
7768;BME280;3928;42.626;23.382;2022-11-12T12:19:33;95494.09;;;12.09;67.39
7768;BME280;3928;42.626;23.382;2022-11-12T12:22:04;95487.31;;;11.87;67.97
7768;BME280;3928;42.626;23.382;2022-11-12T12:24:39;95471.84;;;11.78;69.69
7768;BME280;3928;42.626;23.382;2022-11-12T12:27:11;95487.31;;;11.81;68.60
7768;BME280;3928;42.626;23.382;2022-11-12T12:29:42;95483.84;;;11.79;69.26
7768;BME280;3928;42.626;23.382;2022-11-12T12:32:17;95478.72;;;11.88;68.71
7768;BME280;3928;42.626;23.382;2022-11-12T12:34:49;95490.72;;;11.96;68.41
7768;BME280;3928;42.626;23.382;2022-11-12T12:37:22;95475.25;;;11.98;68.32
7768;BME280;3928;42.626;23.382;2022-11-12T12:39:59;95475.22;;;12.07;68.32
7768;BME280;3928;42.626;23.382;2022-11-12T12:42:32;95488.84;;;12.30;68.65
7768;BME280;3928;42.626;23.382;2022-11-12T12:45:16;95494.81;;;12.43;69.28
7768;BME280;3928;42.626;23.382;2022-11-12T12:47:51;95471.69;;;12.33;70.00
7768;BME280;3928;42.626;23.382;2022-11-12T12:50:19;95496.56;;;12.37;70.37
7768;BME280;3928;42.626;23.382;2022-11-12T12:53:04;95499.13;;;12.37;71.59
7768;BME280;3928;42.626;23.382;2022-11-12T12:55:41;95504.25;;;12.41;72.29
7768;BME280;3928;42.626;23.382;2022-11-12T12:58:17;95500.81;;;12.41;72.69
7768;BME280;3928;42.626;23.382;2022-11-12T13:00:47;95498.31;;;12.27;73.43
7768;BME280;3928;42.626;23.382;2022-11-12T13:03:50;95482.06;;;12.13;74.47
7768;BME280;3928;42.626;23.382;2022-11-12T13:06:24;95468.38;;;12.09;74.85
7768;BME280;3928;42.626;23.382;2022-11-12T13:08:55;95463.25;;;12.00;74.64
7768;BME280;3928;42.626;23.382;2022-11-12T13:11:49;95440.13;;;11.77;75.87
7768;BME280;3928;42.626;23.382;2022-11-12T13:14:51;95496.69;;;12.02;77.01
7768;BME280;3928;42.626;23.382;2022-11-12T13:17:46;95497.56;;;11.99;77.41
7768;BME280;3928;42.626;23.382;2022-11-12T13:20:39;95513.78;;;12.18;86.01
7768;BME280;3928;42.626;23.382;2022-11-12T13:26:47;95511.06;;;12.50;81.34
7768;BME280;3928;42.626;23.382;2022-11-12T13:29:38;95509.34;;;12.55;80.40
7768;BME280;3928;42.626;23.382;2022-11-12T13:32:34;95524.75;;;12.61;80.34
7768;BME280;3928;42.626;23.382;2022-11-12T13:35:29;95523.06;;;12.57;78.66